Airfield :
LOGIN :

Register | Disclaimer

   EN    FR    IT 

 










Legend :    VFR   Marginal VFR   IFR   Intensive IFR   Very Intensive IFR
Visi :
Ceiling :
>= 8 km
>= 3000ft
5 to 8 km
1000 to 3000 ft
1500m to 5 km
500 to 1000 ft
800 to 1500m
200 to 500 ft
< 800m
< 200 ft
Symbols :   Thunderstorms  Fog  Heavy snow  Heavy precipitations  Wind > 20 kt
SIGMETs :     Misc.  Thunderstorms  Icing  Turbulence  Mountain Waves  Volcanic Ashes







- Airport Elevation : 102 ft
- IATA code : CNG
- Download approach charts


LFBG - Cognac

CURRENT METAR :
  • 240830Z AUTO VRB02KT 9999 OVC049 21/12 Q1022 NOSIG

EXPIRED METARs :
  • 240800Z AUTO VRB02KT 9999 OVC049 20/13 Q1022
  • 240730Z AUTO VRB03KT 9999 OVC048 18/13 Q1023 NOSIG
  • 240700Z AUTO 11003KT 9999 OVC047 18/13 Q1023 NOSIG
  • 240630Z AUTO 08003KT 9999 OVC046 16/13 Q1022 NOSIG
  • 240600Z AUTO 07002KT 9999 OVC044 15/13 Q1022 BECMG BKN014

TAF TAF LFBG
Valid from the 23 at 09:00 until the 24 at 09:00 UTC


230800Z 2309/2409 26008KT 9999 BKN025
No reported NOTAMs for that airfield.



MET'MAP, your aeronautical weather chart ! - Copyright ORBIFLY December 2007 - Disclaimer

ORBIFLY MET'MAP TEAM :

Programming & Development : Alexandra Zaïnal
Concept & Development : Baudouin d'Aumeries
Co-Development & Prog : Marc-Olivier Méhu
Technical & hardware support : Manuel Goepfert

Contact : metmap@orbifly.com




SOURCES & CREDITS :

   NOAA